New Delight — 3FCH5 — position and weather

sailwx.info

Track history (hours):
 
Tides and Currents Weather Stations Pressure Air Temp Water Temp Dewpoint Dewpoint Depression Visibility Wind Speed Wind Dir Waves Ship Positions

New Delight

Last reported at 2018-Jul-19 11:26 UTC. Time now 2018-Aug-14 15:21 UTC.
Position S 38°29' E 148°45'.
Warning: this ship's position is 26 days out of date.

Length 292 m; draft 16.9 m.

Type: Cargo ship. MMSI: 373922000.

Date/timePositionNaut miles runAvg speedWind from/ knotsBaromVisibWave heightAir tempDewpointWater temp
2018-Jul-19 11:26S 38°29' E 148°45'612.3
2018-Jul-19 10:58S 38°26' E 148°51'612.4
2018-Jul-19 10:30S 38°22' E 148°57'28712.4
2018-Jul-18 11:17S 34°16' E 151°59'6911.3
2018-Jul-18 05:11S 33°13' E 152°32'510.6
2018-Jul-18 04:40S 33°08' E 152°35'210.7
2018-Jul-18 04:30S 33°06' E 152°36'510.5
2018-Jul-18 04:00S 33°01' E 152°38'710.7
2018-Jul-18 03:20S 32°55' E 152°42'511.1
2018-Jul-18 02:53S 32°50' E 152°44'611.5
2018-Jul-18 02:22S 32°45' E 152°47'411.8
2018-Jul-18 02:00S 32°41' E 152°49'612.0
2018-Jul-18 01:30S 32°35' E 152°52'712.3
2018-Jul-18 00:58S 32°29' E 152°55'712.5
2018-Jul-18 00:26S 32°23' E 152°58'612.6
2018-Jul-17 23:59S 32°18' E 153°00'26213.1
2018-Jul-17 04:01S 27°59' E 153°51'013.8
2018-Jul-17 04:00S 27°59' E 153°51'714.0
2018-Jul-17 03:30S 27°52' E 153°51'714.0
2018-Jul-17 03:00S 27°45' E 153°50'713.7
2018-Jul-17 02:30S 27°38' E 153°49'713.2
2018-Jul-17 02:00S 27°32' E 153°48'913.2
2018-Jul-17 01:20S 27°23' E 153°48'412.9
2018-Jul-17 00:59S 27°19' E 153°48'713.0
2018-Jul-17 00:26S 27°12' E 153°48'3313.1
2018-Jul-16 21:55S 26°39' E 153°46'  
2018-Jul-13 08:46S 26°59' E 153°47'3712.6
2018-Jul-13 05:48S 27°36' E 153°50'311.5
2018-Jul-13 05:30S 27°39' E 153°51'611.1
2018-Jul-13 05:00S 27°45' E 153°51'710.9
2018-Jul-13 04:23S 27°52' E 153°52'27512.1
2018-Jul-12 05:45S 32°21' E 152°49'312.5
2018-Jul-12 05:30S 32°23' E 152°48'712.7
2018-Jul-12 04:59S 32°30' E 152°45'612.6
2018-Jul-12 04:30S 32°34' E 152°40'612.8
2018-Jul-12 04:00S 32°38' E 152°34'612.7
2018-Jul-12 03:30S 32°42' E 152°28'612.6
2018-Jul-12 03:00S 32°46' E 152°22'612.2
2018-Jul-12 02:30S 32°49' E 152°16'611.9
2018-Jul-12 02:00S 32°51' E 152°09'611.8
2018-Jul-12 01:30S 32°54' E 152°03'611.6
2018-Jul-12 01:00S 32°56' E 151°57'510.3
2018-Jul-12 00:30S 32°58' E 151°51'4 7.1
2018-Jul-12 00:00S 32°55' E 151°48'2 3.2
2018-Jul-11 23:30S 32°54' E 151°46'1 2.5
2018-Jul-11 22:59S 32°53' E 151°45'0 0.1
2018-Jul-11 22:28S 32°53' E 151°45'0 0.0
2018-Jul-11 21:58S 32°53' E 151°45'0 0.0
2018-Jul-11 21:28S 32°53' E 151°45'0 0.0
2018-Jul-11 20:58S 32°53' E 151°45'0 0.0
2018-Jul-11 20:28S 32°53' E 151°45'0 0.0
2018-Jul-11 19:58S 32°53' E 151°45'0 0.0
2018-Jul-11 19:28S 32°53' E 151°45'0 0.0
2018-Jul-11 18:58S 32°53' E 151°45'0 0.0
2018-Jul-11 18:25S 32°53' E 151°45'0 0.0
2018-Jul-11 17:55S 32°53' E 151°45'0 0.0
2018-Jul-11 17:28S 32°53' E 151°45'0 0.0
2018-Jul-11 16:58S 32°53' E 151°45'0 0.0
2018-Jul-11 15:31S 32°53' E 151°45'0 0.0
2018-Jul-11 15:28S 32°53' E 151°45'0 0.0
2018-Jul-11 14:58S 32°53' E 151°45'0 0.0
2018-Jul-11 14:28S 32°53' E 151°45'0 0.0
2018-Jul-11 13:58S 32°53' E 151°45'0 0.0
2018-Jul-11 12:52S 32°53' E 151°45'0 0.0
2018-Jul-11 12:28S 32°53' E 151°45'0 0.0
2018-Jul-11 11:58S 32°53' E 151°45'0 0.0
2018-Jul-11 11:28S 32°53' E 151°45'0 0.0
2018-Jul-11 10:58S 32°53' E 151°45'0 0.0
2018-Jul-11 10:28S 32°53' E 151°45'0 0.0
2018-Jul-11 09:58S 32°53' E 151°45'0 0.0
2018-Jul-11 09:28S 32°53' E 151°45'0 0.0
2018-Jul-11 08:58S 32°53' E 151°45'0 0.0
2018-Jul-11 08:28S 32°53' E 151°45'0 0.0
2018-Jul-11 07:58S 32°53' E 151°45'0 0.0
2018-Jul-11 07:28S 32°53' E 151°45'0 0.0
2018-Jul-11 06:58S 32°53' E 151°45'0 0.0
2018-Jul-11 06:28S 32°53' E 151°45'0 0.0
2018-Jul-11 05:58S 32°53' E 151°45'0 0.0
2018-Jul-11 05:28S 32°53' E 151°45'0 0.0
2018-Jul-11 04:58S 32°53' E 151°45'0 0.0
2018-Jul-11 04:28S 32°53' E 151°45'0 0.0
2018-Jul-11 03:58S 32°53' E 151°45'0 0.0
2018-Jul-11 03:28S 32°53' E 151°45'0 0.0
2018-Jul-11 02:55S 32°53' E 151°45'0 0.0
2018-Jul-11 02:28S 32°53' E 151°45'0 0.0
2018-Jul-11 01:58S 32°53' E 151°45'0 0.0
2018-Jul-11 01:28S 32°53' E 151°45'0 0.0
2018-Jul-11 00:55S 32°53' E 151°45'0 0.0
2018-Jul-11 00:28S 32°53' E 151°45'0 0.0
2018-Jul-10 23:55S 32°53' E 151°45'0 0.0
2018-Jul-10 23:28S 32°53' E 151°45'0 0.0
2018-Jul-10 23:00S 32°53' E 151°45'0 0.3
2018-Jul-10 22:30S 32°53' E 151°45'1 2.0
2018-Jul-10 22:00S 32°54' E 151°46'2 3.3
2018-Jul-10 21:30S 32°55' E 151°47'3 6.9
2018-Jul-10 21:00S 32°57' E 151°51'4 7.9
2018-Jul-10 20:31S 33°01' E 151°53'2 4.7
2018-Jul-10 20:00S 33°02' E 151°55'1 2.4
2018-Jul-10 19:30S 33°02' E 151°56'3 6.7
2018-Jul-10 19:00S 33°00' E 151°60'612.8
2018-Jul-10 18:31S 33°02' E 152°07'612.7
2018-Jul-10 18:00S 33°05' E 152°14'3 6.0
2018-Jul-10 17:30S 33°05' E 152°17'1 2.2
2018-Jul-10 17:00S 33°06' E 152°17'1 2.0
2018-Jul-10 16:30S 33°07' E 152°16'1 2.1
2018-Jul-10 16:00S 33°08' E 152°15'21 2.1
2018-Jul-10 05:51S 33°13' E 151°50'2 5.5
2018-Jul-10 05:29S 33°11' E 151°49'1 2.0
2018-Jul-10 05:00S 33°12' E 151°50'1 1.8
2018-Jul-10 04:30S 33°12' E 151°51'1 1.8
2018-Jul-10 04:00S 33°12' E 151°52'1 1.8
2018-Jul-10 03:27S 33°13' E 151°53'1 1.9
2018-Jul-10 02:57S 33°13' E 151°54'7 1.9
2018-Jul-09 23:04S 33°19' E 151°60'0 2.3
2018-Jul-09 22:54S 33°18' E 151°60'3 8.5
2018-Jul-09 22:30S 33°15' E 152°02'611.3
2018-Jul-09 22:00S 33°11' E 152°06'611.8
2018-Jul-09 21:30S 33°06' E 152°10'611.8
2018-Jul-09 21:00S 33°02' E 152°14'611.6
2018-Jul-09 20:30S 32°56' E 152°18'3 6.9
2018-Jul-09 20:00S 32°53' E 152°18'1 1.8
2018-Jul-09 19:30S 32°54' E 152°18'1 1.6
2018-Jul-09 19:00S 32°55' E 152°18'1 1.7
2018-Jul-09 18:30S 32°55' E 152°17'1 1.6
2018-Jul-09 18:00S 32°56' E 152°17'1 1.5
2018-Jul-09 17:30S 32°57' E 152°17'1 1.9
2018-Jul-09 17:00S 32°58' E 152°17'1 2.1
2018-Jul-09 16:30S 32°59' E 152°16'1 2.0
2018-Jul-09 16:00S 32°60' E 152°16'1 2.1
2018-Jul-09 15:29S 33°01' E 152°15'1 1.9
2018-Jul-09 14:59S 33°02' E 152°15'1 2.1
2018-Jul-09 14:30S 33°03' E 152°15'1 2.3
2018-Jul-09 14:00S 33°04' E 152°14'1 2.2
2018-Jul-09 13:30S 33°05' E 152°13'1 2.2
2018-Jul-09 13:00S 33°06' E 152°13'1 2.3
2018-Jul-09 12:26S 33°07' E 152°12'1 2.3
2018-Jul-09 11:59S 33°08' E 152°12'1 2.2
2018-Jul-09 11:30S 33°09' E 152°11'  
Track history (hours):
 
Tides and Currents Weather Stations Pressure Air Temp Water Temp Dewpoint Dewpoint Depression Visibility Wind Speed Wind Dir Waves Ship Positions

New Delight

Last reported at 2018-Jul-19 11:26 UTC. Time now 2018-Aug-14 15:21 UTC.
Position S 38°29' E 148°45'.
Warning: this ship's position is 26 days out of date.

Length 292 m; draft 16.9 m.

Type: Cargo ship. MMSI: 373922000.

Date/timePositionNaut miles runAvg speedWind from/ knotsBaromVisibWave heightAir tempDewpointWater temp
2018-Jul-19 11:26S 38°29' E 148°45'612.3
2018-Jul-19 10:58S 38°26' E 148°51'612.4
2018-Jul-19 10:30S 38°22' E 148°57'28712.4
2018-Jul-18 11:17S 34°16' E 151°59'6911.3
2018-Jul-18 05:11S 33°13' E 152°32'510.6
2018-Jul-18 04:40S 33°08' E 152°35'210.7
2018-Jul-18 04:30S 33°06' E 152°36'510.5
2018-Jul-18 04:00S 33°01' E 152°38'710.7
2018-Jul-18 03:20S 32°55' E 152°42'511.1
2018-Jul-18 02:53S 32°50' E 152°44'611.5
2018-Jul-18 02:22S 32°45' E 152°47'411.8
2018-Jul-18 02:00S 32°41' E 152°49'612.0
2018-Jul-18 01:30S 32°35' E 152°52'712.3
2018-Jul-18 00:58S 32°29' E 152°55'712.5
2018-Jul-18 00:26S 32°23' E 152°58'612.6
2018-Jul-17 23:59S 32°18' E 153°00'26213.1
2018-Jul-17 04:01S 27°59' E 153°51'013.8
2018-Jul-17 04:00S 27°59' E 153°51'714.0
2018-Jul-17 03:30S 27°52' E 153°51'714.0
2018-Jul-17 03:00S 27°45' E 153°50'713.7
2018-Jul-17 02:30S 27°38' E 153°49'713.2
2018-Jul-17 02:00S 27°32' E 153°48'913.2
2018-Jul-17 01:20S 27°23' E 153°48'412.9
2018-Jul-17 00:59S 27°19' E 153°48'713.0
2018-Jul-17 00:26S 27°12' E 153°48'3313.1
2018-Jul-16 21:55S 26°39' E 153°46'  
2018-Jul-13 08:46S 26°59' E 153°47'3712.6
2018-Jul-13 05:48S 27°36' E 153°50'311.5
2018-Jul-13 05:30S 27°39' E 153°51'611.1
2018-Jul-13 05:00S 27°45' E 153°51'710.9
2018-Jul-13 04:23S 27°52' E 153°52'27512.1
2018-Jul-12 05:45S 32°21' E 152°49'312.5
2018-Jul-12 05:30S 32°23' E 152°48'712.7
2018-Jul-12 04:59S 32°30' E 152°45'612.6
2018-Jul-12 04:30S 32°34' E 152°40'612.8
2018-Jul-12 04:00S 32°38' E 152°34'612.7
2018-Jul-12 03:30S 32°42' E 152°28'612.6
2018-Jul-12 03:00S 32°46' E 152°22'612.2
2018-Jul-12 02:30S 32°49' E 152°16'611.9
2018-Jul-12 02:00S 32°51' E 152°09'611.8
2018-Jul-12 01:30S 32°54' E 152°03'611.6
2018-Jul-12 01:00S 32°56' E 151°57'510.3
2018-Jul-12 00:30S 32°58' E 151°51'4 7.1
2018-Jul-12 00:00S 32°55' E 151°48'2 3.2
2018-Jul-11 23:30S 32°54' E 151°46'1 2.5
2018-Jul-11 22:59S 32°53' E 151°45'0 0.1
2018-Jul-11 22:28S 32°53' E 151°45'0 0.0
2018-Jul-11 21:58S 32°53' E 151°45'0 0.0
2018-Jul-11 21:28S 32°53' E 151°45'0 0.0
2018-Jul-11 20:58S 32°53' E 151°45'0 0.0
2018-Jul-11 20:28S 32°53' E 151°45'0 0.0
2018-Jul-11 19:58S 32°53' E 151°45'0 0.0
2018-Jul-11 19:28S 32°53' E 151°45'0 0.0
2018-Jul-11 18:58S 32°53' E 151°45'0 0.0
2018-Jul-11 18:25S 32°53' E 151°45'0 0.0
2018-Jul-11 17:55S 32°53' E 151°45'0 0.0
2018-Jul-11 17:28S 32°53' E 151°45'0 0.0
2018-Jul-11 16:58S 32°53' E 151°45'0 0.0
2018-Jul-11 15:31S 32°53' E 151°45'0 0.0
2018-Jul-11 15:28S 32°53' E 151°45'0 0.0
2018-Jul-11 14:58S 32°53' E 151°45'0 0.0
2018-Jul-11 14:28S 32°53' E 151°45'0 0.0
2018-Jul-11 13:58S 32°53' E 151°45'0 0.0
2018-Jul-11 12:52S 32°53' E 151°45'0 0.0
2018-Jul-11 12:28S 32°53' E 151°45'0 0.0
2018-Jul-11 11:58S 32°53' E 151°45'0 0.0
2018-Jul-11 11:28S 32°53' E 151°45'0 0.0
2018-Jul-11 10:58S 32°53' E 151°45'0 0.0
2018-Jul-11 10:28S 32°53' E 151°45'0 0.0
2018-Jul-11 09:58S 32°53' E 151°45'0 0.0
2018-Jul-11 09:28S 32°53' E 151°45'0 0.0
2018-Jul-11 08:58S 32°53' E 151°45'0 0.0
2018-Jul-11 08:28S 32°53' E 151°45'0 0.0
2018-Jul-11 07:58S 32°53' E 151°45'0 0.0
2018-Jul-11 07:28S 32°53' E 151°45'0 0.0
2018-Jul-11 06:58S 32°53' E 151°45'0 0.0
2018-Jul-11 06:28S 32°53' E 151°45'0 0.0
2018-Jul-11 05:58S 32°53' E 151°45'0 0.0
2018-Jul-11 05:28S 32°53' E 151°45'0 0.0
2018-Jul-11 04:58S 32°53' E 151°45'0 0.0
2018-Jul-11 04:28S 32°53' E 151°45'0 0.0
2018-Jul-11 03:58S 32°53' E 151°45'0 0.0
2018-Jul-11 03:28S 32°53' E 151°45'0 0.0
2018-Jul-11 02:55S 32°53' E 151°45'0 0.0
2018-Jul-11 02:28S 32°53' E 151°45'0 0.0
2018-Jul-11 01:58S 32°53' E 151°45'0 0.0
2018-Jul-11 01:28S 32°53' E 151°45'0 0.0
2018-Jul-11 00:55S 32°53' E 151°45'0 0.0
2018-Jul-11 00:28S 32°53' E 151°45'0 0.0
2018-Jul-10 23:55S 32°53' E 151°45'0 0.0
2018-Jul-10 23:28S 32°53' E 151°45'0 0.0
2018-Jul-10 23:00S 32°53' E 151°45'0 0.3
2018-Jul-10 22:30S 32°53' E 151°45'1 2.0
2018-Jul-10 22:00S 32°54' E 151°46'2 3.3
2018-Jul-10 21:30S 32°55' E 151°47'3 6.9
2018-Jul-10 21:00S 32°57' E 151°51'4 7.9
2018-Jul-10 20:31S 33°01' E 151°53'2 4.7
2018-Jul-10 20:00S 33°02' E 151°55'1 2.4
2018-Jul-10 19:30S 33°02' E 151°56'3 6.7
2018-Jul-10 19:00S 33°00' E 151°60'612.8
2018-Jul-10 18:31S 33°02' E 152°07'612.7
2018-Jul-10 18:00S 33°05' E 152°14'3 6.0
2018-Jul-10 17:30S 33°05' E 152°17'1 2.2
2018-Jul-10 17:00S 33°06' E 152°17'1 2.0
2018-Jul-10 16:30S 33°07' E 152°16'1 2.1
2018-Jul-10 16:00S 33°08' E 152°15'21 2.1
2018-Jul-10 05:51S 33°13' E 151°50'2 5.5
2018-Jul-10 05:29S 33°11' E 151°49'1 2.0
2018-Jul-10 05:00S 33°12' E 151°50'1 1.8
2018-Jul-10 04:30S 33°12' E 151°51'1 1.8
2018-Jul-10 04:00S 33°12' E 151°52'1 1.8
2018-Jul-10 03:27S 33°13' E 151°53'1 1.9
2018-Jul-10 02:57S 33°13' E 151°54'7 1.9
2018-Jul-09 23:04S 33°19' E 151°60'0 2.3
2018-Jul-09 22:54S 33°18' E 151°60'3 8.5
2018-Jul-09 22:30S 33°15' E 152°02'611.3
2018-Jul-09 22:00S 33°11' E 152°06'611.8
2018-Jul-09 21:30S 33°06' E 152°10'611.8
2018-Jul-09 21:00S 33°02' E 152°14'611.6
2018-Jul-09 20:30S 32°56' E 152°18'3 6.9
2018-Jul-09 20:00S 32°53' E 152°18'1 1.8
2018-Jul-09 19:30S 32°54' E 152°18'1 1.6
2018-Jul-09 19:00S 32°55' E 152°18'1 1.7
2018-Jul-09 18:30S 32°55' E 152°17'1 1.6
2018-Jul-09 18:00S 32°56' E 152°17'1 1.5
2018-Jul-09 17:30S 32°57' E 152°17'1 1.9
2018-Jul-09 17:00S 32°58' E 152°17'1 2.1
2018-Jul-09 16:30S 32°59' E 152°16'1 2.0
2018-Jul-09 16:00S 32°60' E 152°16'1 2.1
2018-Jul-09 15:29S 33°01' E 152°15'1 1.9
2018-Jul-09 14:59S 33°02' E 152°15'1 2.1
2018-Jul-09 14:30S 33°03' E 152°15'1 2.3
2018-Jul-09 14:00S 33°04' E 152°14'1 2.2
2018-Jul-09 13:30S 33°05' E 152°13'1 2.2
2018-Jul-09 13:00S 33°06' E 152°13'1 2.3
2018-Jul-09 12:26S 33°07' E 152°12'1 2.3
2018-Jul-09 11:59S 33°08' E 152°12'1 2.2
2018-Jul-09 11:30S 33°09' E 152°11'  

Dump ship's entire track history